createdAt,value
2022-08-05T04:06:35.116Z,2.92
2022-08-05T04:11:47.737Z,2.47
2022-08-05T04:16:55.036Z,4.78
2022-08-05T04:22:05.736Z,3.13
2022-08-05T04:27:15.895Z,3.40
2022-08-05T04:32:31.183Z,3.20
2022-08-05T04:38:01.502Z,3.10
2022-08-05T04:42:57.340Z,3.00
2022-08-05T04:48:07.340Z,3.20
2022-08-05T04:53:19.241Z,3.40
2022-08-05T04:58:22.725Z,3.50
2022-08-05T05:03:24.683Z,3.63
2022-08-05T05:08:30.452Z,3.30
2022-08-05T05:13:42.968Z,3.40
2022-08-05T05:19:08.897Z,3.30
2022-08-05T05:24:08.813Z,3.20
2022-08-05T05:29:14.898Z,3.70
2022-08-05T05:34:21.195Z,3.78
2022-08-05T05:39:34.578Z,3.13
2022-08-05T05:44:44.383Z,3.10
2022-08-05T05:49:56.994Z,3.05
2022-08-05T05:55:13.586Z,3.05
2022-08-05T06:00:21.594Z,3.35
2022-08-05T06:05:33.739Z,3.70
2022-08-05T06:10:37.383Z,4.18
2022-08-05T06:16:28.839Z,3.63
2022-08-05T06:21:16.593Z,3.90
2022-08-05T06:26:24.038Z,4.13
2022-08-05T06:31:30.441Z,3.58
2022-08-05T06:36:56.692Z,4.15
2022-08-05T06:41:58.960Z,3.97
2022-08-05T06:47:02.165Z,3.60
2022-08-05T06:52:04.818Z,5.03
2022-08-05T06:57:56.707Z,3.58
2022-08-05T07:02:29.439Z,3.60
2022-08-05T07:07:35.413Z,3.38
2022-08-05T07:13:03.461Z,3.70
2022-08-05T07:18:09.288Z,3.80
2022-08-05T07:23:13.022Z,3.65
2022-08-05T07:28:28.642Z,4.00
2022-08-05T07:33:36.855Z,3.55
2022-08-05T07:38:42.846Z,3.80
2022-08-05T07:43:45.981Z,3.65
2022-08-05T07:49:01.397Z,4.25
2022-08-05T07:54:08.401Z,4.00
2022-08-05T07:59:12.134Z,4.35
2022-08-05T08:04:16.573Z,4.00
2022-08-05T08:09:25.224Z,4.32
2022-08-05T08:14:31.083Z,3.90
2022-08-05T08:20:22.835Z,4.07
2022-08-05T08:24:55.505Z,3.90
2022-08-05T08:30:30.111Z,4.22
2022-08-05T08:35:28.282Z,4.03
2022-08-05T08:40:38.134Z,4.70
2022-08-05T08:45:41.518Z,4.20
2022-08-05T08:51:04.052Z,3.90
2022-08-05T08:56:07.191Z,3.65
2022-08-05T09:01:11.037Z,3.88
2022-08-05T09:06:20.415Z,3.50
2022-08-05T09:11:52.007Z,3.60
2022-08-05T09:16:48.940Z,3.35
2022-08-05T09:22:31.218Z,3.45
2022-08-05T09:28:05.055Z,3.40
2022-08-05T09:33:02.906Z,3.20
2022-08-05T09:38:16.648Z,3.58
2022-08-05T09:43:41.005Z,3.67
2022-08-05T09:49:03.703Z,3.40
2022-08-05T09:54:09.514Z,3.45
2022-08-05T09:59:16.861Z,3.30
2022-08-05T10:04:19.403Z,3.30
2022-08-05T10:09:45.246Z,3.67
2022-08-05T10:14:47.481Z,3.85
2022-08-05T10:20:04.135Z,3.22
2022-08-05T10:25:14.404Z,3.38
2022-08-05T10:31:20.867Z,3.40
2022-08-05T10:35:40.564Z,3.22
2022-08-05T10:40:59.186Z,3.40
2022-08-05T10:46:08.297Z,2.97
2022-08-05T10:51:21.686Z,2.75
2022-08-05T10:56:31.160Z,2.70
2022-08-05T11:01:54.172Z,2.70
2022-08-05T11:06:57.962Z,2.50
2022-08-05T11:12:00.007Z,2.67
2022-08-05T11:17:57.969Z,2.50
2022-08-05T11:22:54.079Z,2.30
2022-08-05T11:28:16.914Z,2.30
2022-08-05T11:33:46.697Z,2.45
2022-08-05T11:38:52.426Z,2.45
2022-08-05T11:44:13.003Z,2.45
2022-08-05T11:49:35.146Z,2.30
2022-08-05T11:54:38.264Z,2.85
2022-08-05T11:59:50.305Z,2.20
2022-08-05T12:04:59.212Z,2.58
2022-08-05T12:10:09.124Z,2.78
2022-08-05T12:15:38.375Z,2.05
2022-08-05T12:20:42.270Z,2.45
2022-08-05T12:25:53.633Z,2.50
2022-08-05T12:31:02.405Z,2.45
2022-08-05T12:36:08.797Z,2.58
2022-08-05T12:41:14.586Z,2.30
2022-08-05T12:46:28.949Z,2.40
2022-08-05T12:52:13.826Z,2.40
2022-08-05T12:56:58.368Z,2.30
2022-08-05T13:02:07.963Z,2.50
2022-08-05T13:07:55.948Z,2.58
2022-08-05T13:12:51.071Z,2.30
2022-08-05T13:17:59.617Z,2.42
2022-08-05T13:23:07.175Z,2.00
2022-08-05T13:28:10.569Z,2.30
2022-08-05T13:34:20.218Z,2.20
2022-08-05T13:38:36.338Z,2.10
2022-08-05T13:43:45.651Z,2.05
2022-08-05T13:49:01.011Z,2.30
2022-08-05T13:54:03.317Z,2.05
2022-08-05T13:59:20.277Z,2.10
2022-08-05T14:04:41.924Z,2.03
2022-08-05T14:09:46.364Z,2.17
2022-08-05T14:14:48.908Z,1.67
2022-08-05T14:19:56.814Z,2.00
2022-08-05T14:25:06.494Z,2.47
2022-08-05T14:30:21.648Z,2.05
2022-08-05T14:35:23.750Z,2.00
2022-08-05T14:40:39.629Z,1.98
2022-08-05T14:45:45.908Z,2.10
